createdAt,value
2022-09-04T00:02:36.061Z,97.60
2022-09-04T00:05:28.588Z,97.80
2022-09-04T00:08:03.671Z,97.80
2022-09-04T00:10:42.504Z,97.70
2022-09-04T00:13:17.263Z,97.70
2022-09-04T00:15:48.651Z,97.70
2022-09-04T00:18:28.977Z,97.80
2022-09-04T00:21:26.462Z,97.90
2022-09-04T00:23:59.666Z,98.00
2022-09-04T00:26:52.917Z,98.10
2022-09-04T00:30:01.704Z,98.40
2022-09-04T00:32:49.817Z,98.70
2022-09-04T00:35:32.481Z,98.70
2022-09-04T00:38:28.606Z,98.80
2022-09-04T00:41:13.514Z,98.90
2022-09-04T00:44:15.139Z,98.70
2022-09-04T00:46:58.992Z,98.80
2022-09-04T00:49:45.878Z,98.70
2022-09-04T00:52:36.761Z,98.70
2022-09-04T00:55:40.899Z,98.80
2022-09-04T00:58:31.261Z,98.80
2022-09-04T01:00:59.619Z,98.90
2022-09-04T01:04:04.721Z,98.90
2022-09-04T01:07:07.622Z,99.00
2022-09-04T01:09:52.503Z,99.10
2022-09-04T01:12:40.298Z,99.00
2022-09-04T01:15:24.624Z,99.10
2022-09-04T01:18:13.475Z,99.00
2022-09-04T01:20:43.250Z,98.90
2022-09-04T01:23:55.453Z,99.00
2022-09-04T01:26:43.362Z,99.10
2022-09-04T01:29:39.835Z,99.10
2022-09-04T01:32:35.463Z,99.00
2022-09-04T01:35:12.570Z,99.30
2022-09-04T01:37:55.522Z,99.20
2022-09-04T01:40:22.339Z,99.50
2022-09-04T01:42:59.747Z,99.40
2022-09-04T01:45:55.971Z,99.30
2022-09-04T01:49:09.366Z,99.80
2022-09-04T01:52:00.318Z,99.60
2022-09-04T01:55:01.080Z,99.50
2022-09-04T01:57:55.256Z,99.70
2022-09-04T02:00:23.199Z,99.80
2022-09-04T02:03:14.981Z,99.50
2022-09-04T02:06:04.926Z,99.60
2022-09-04T02:09:00.082Z,99.70
2022-09-04T02:11:30.818Z,99.80
2022-09-04T02:14:28.917Z,99.70
2022-09-04T02:17:18.310Z,99.90
2022-09-04T02:20:07.496Z,99.80
2022-09-04T02:22:41.960Z,99.90
2022-09-04T02:25:32.948Z,99.90
2022-09-04T02:28:19.822Z,99.90
2022-09-04T02:30:56.633Z,99.90
2022-09-04T02:33:38.322Z,99.90
2022-09-04T02:36:18.062Z,99.90
2022-09-04T02:39:11.549Z,99.90
2022-09-04T02:42:04.125Z,99.90
2022-09-04T02:44:43.337Z,99.90
2022-09-04T02:47:30.819Z,99.90
2022-09-04T02:50:03.533Z,99.90
2022-09-04T02:52:52.035Z,99.90
2022-09-04T02:55:57.715Z,99.90
2022-09-04T02:58:32.665Z,99.90
2022-09-04T03:01:22.736Z,99.90
2022-09-04T03:04:05.967Z,99.90
2022-09-04T03:06:53.801Z,99.90
2022-09-04T03:09:23.977Z,99.90
2022-09-04T03:12:14.797Z,99.90
2022-09-04T03:15:04.777Z,99.90
2022-09-04T03:17:48.778Z,99.90
2022-09-04T03:20:22.678Z,99.90
2022-09-04T03:23:18.154Z,99.90
2022-09-04T03:25:56.986Z,99.90
2022-09-04T03:28:34.709Z,99.90
2022-09-04T03:31:23.937Z,99.90
2022-09-04T03:34:11.438Z,99.90
2022-09-04T03:36:56.296Z,99.90
2022-09-04T03:39:30.792Z,99.90
2022-09-04T03:42:09.505Z,99.90
2022-09-04T03:44:41.999Z,99.90
2022-09-04T03:47:46.972Z,99.90
2022-09-04T03:50:52.340Z,99.90
2022-09-04T03:53:22.055Z,99.90
2022-09-04T03:56:07.574Z,99.90
2022-09-04T03:58:57.978Z,99.90
2022-09-04T04:01:30.621Z,99.90
2022-09-04T04:04:05.497Z,99.90
2022-09-04T04:07:01.569Z,99.90
2022-09-04T04:09:50.889Z,99.90
2022-09-04T04:12:42.655Z,99.90
2022-09-04T04:15:18.216Z,99.90
2022-09-04T04:18:19.113Z,99.90
2022-09-04T04:21:20.442Z,99.90
2022-09-04T04:24:18.766Z,99.90
2022-09-04T04:27:00.820Z,99.90
2022-09-04T04:29:49.755Z,99.90
2022-09-04T04:32:25.555Z,99.90
2022-09-04T04:35:11.438Z,99.90
2022-09-04T04:37:57.463Z,99.90
2022-09-04T04:40:45.930Z,99.90
2022-09-04T04:43:52.587Z,99.90
2022-09-04T04:46:27.418Z,99.90
2022-09-04T04:49:18.762Z,99.90
2022-09-04T04:52:05.095Z,99.90
2022-09-04T04:55:06.203Z,99.90
2022-09-04T04:57:53.325Z,99.90
2022-09-04T05:00:33.349Z,99.90
2022-09-04T05:03:24.881Z,99.90
2022-09-04T05:06:13.351Z,99.90
2022-09-04T05:09:09.352Z,99.90
2022-09-04T05:12:06.613Z,99.90
2022-09-04T05:14:38.053Z,99.90
2022-09-04T05:17:26.074Z,99.90
2022-09-04T05:19:55.546Z,99.70
2022-09-04T05:22:38.372Z,99.40
2022-09-04T05:25:35.404Z,99.00
2022-09-04T05:28:10.947Z,98.50
2022-09-04T05:31:04.656Z,98.10
2022-09-04T05:33:41.742Z,97.60
2022-09-04T05:36:11.375Z,97.30
2022-09-04T05:38:44.312Z,97.10
2022-09-04T05:41:23.393Z,96.70
2022-09-04T05:43:56.302Z,96.50
2022-09-04T05:46:39.795Z,96.20
2022-09-04T05:49:23.994Z,95.40
2022-09-04T05:52:07.650Z,95.60
2022-09-04T05:54:56.019Z,94.70
2022-09-04T05:57:38.531Z,94.70
2022-09-04T06:00:16.473Z,94.10
2022-09-04T06:03:01.776Z,94.50
2022-09-04T06:05:50.913Z,94.30
2022-09-04T06:08:35.730Z,94.20
2022-09-04T06:11:31.791Z,93.90
2022-09-04T06:14:30.442Z,94.50
2022-09-04T06:17:12.169Z,94.90
2022-09-04T06:20:24.783Z,94.80
2022-09-04T06:23:07.456Z,94.50
2022-09-04T06:26:12.644Z,94.30
2022-09-04T06:29:07.323Z,94.10
2022-09-04T06:31:53.084Z,94.00
2022-09-04T06:34:58.905Z,93.40
2022-09-04T06:37:44.034Z,93.70
2022-09-04T06:40:34.086Z,92.90
2022-09-04T06:43:19.583Z,93.30
2022-09-04T06:46:19.124Z,93.10
2022-09-04T06:49:09.915Z,92.60
2022-09-04T06:51:57.529Z,92.60
2022-09-04T06:54:36.146Z,92.50
2022-09-04T06:57:23.083Z,92.80
2022-09-04T07:00:14.602Z,93.10
2022-09-04T07:03:01.586Z,93.10
2022-09-04T07:05:43.071Z,92.80
2022-09-04T07:08:26.437Z,92.80
2022-09-04T07:11:07.099Z,92.50
2022-09-04T07:13:54.640Z,92.90
2022-09-04T07:16:49.341Z,92.50
2022-09-04T07:19:32.906Z,92.20
2022-09-04T07:22:31.575Z,92.60
2022-09-04T07:25:09.687Z,92.20
2022-09-04T07:28:06.990Z,92.20
2022-09-04T07:30:52.878Z,91.80
2022-09-04T07:33:31.814Z,91.40
2022-09-04T07:36:08.947Z,90.80
2022-09-04T07:38:54.466Z,90.80
2022-09-04T07:41:46.650Z,91.30
2022-09-04T07:44:42.834Z,91.20
2022-09-04T07:47:18.464Z,91.00
2022-09-04T07:50:12.492Z,90.70
2022-09-04T07:53:02.581Z,90.70
2022-09-04T07:55:42.254Z,90.30
2022-09-04T07:58:25.672Z,90.20
2022-09-04T08:01:40.097Z,90.30
2022-09-04T08:04:09.882Z,90.80
2022-09-04T08:06:46.147Z,90.50
2022-09-04T08:09:36.668Z,90.50
2022-09-04T08:12:25.664Z,89.80
2022-09-04T08:14:53.802Z,89.70
2022-09-04T08:17:43.063Z,90.40
2022-09-04T08:20:32.818Z,90.70
2022-09-04T08:23:12.963Z,90.40
2022-09-04T08:26:24.767Z,90.20
2022-09-04T08:29:32.891Z,89.50
2022-09-04T08:32:11.775Z,88.50
2022-09-04T08:34:57.926Z,87.40
2022-09-04T08:37:57.405Z,87.10
2022-09-04T08:40:33.175Z,87.10
2022-09-04T08:43:30.977Z,87.00
2022-09-04T08:46:38.356Z,87.00
2022-09-04T08:49:37.702Z,87.10
2022-09-04T08:52:19.738Z,87.00
2022-09-04T08:55:03.060Z,86.60
2022-09-04T08:58:04.535Z,86.30
2022-09-04T09:01:08.983Z,86.30
2022-09-04T09:04:01.874Z,85.70
2022-09-04T09:06:56.238Z,85.20
2022-09-04T09:09:32.003Z,85.60
2022-09-04T09:12:41.256Z,85.20
2022-09-04T09:15:31.430Z,83.60
2022-09-04T09:18:22.872Z,83.50
2022-09-04T09:20:54.297Z,84.80
2022-09-04T09:23:39.242Z,85.10
2022-09-04T09:26:29.429Z,84.40
2022-09-04T09:29:14.211Z,84.70
2022-09-04T09:32:28.856Z,84.40
2022-09-04T09:35:23.384Z,85.50
2022-09-04T09:38:24.035Z,84.80
2022-09-04T09:41:18.662Z,84.40
2022-09-04T09:44:15.015Z,84.50
2022-09-04T09:47:25.062Z,85.40
2022-09-04T09:50:08.926Z,84.50
2022-09-04T09:53:12.996Z,84.60
2022-09-04T09:55:54.037Z,85.30
2022-09-04T09:58:44.430Z,84.70
2022-09-04T10:01:58.902Z,83.90
2022-09-04T10:04:53.731Z,84.60
2022-09-04T10:07:53.199Z,84.70
2022-09-04T10:10:41.182Z,85.10
2022-09-04T10:13:26.562Z,85.40
2022-09-04T10:16:19.299Z,85.30
2022-09-04T10:19:11.386Z,84.90
2022-09-04T10:22:09.910Z,83.50
2022-09-04T10:25:02.421Z,84.00
2022-09-04T10:28:00.030Z,84.30
2022-09-04T10:30:35.986Z,82.90
2022-09-04T10:33:12.043Z,83.00
2022-09-04T10:35:45.871Z,82.50
2022-09-04T10:38:33.692Z,83.00
2022-09-04T10:41:28.650Z,83.80
2022-09-04T10:44:36.369Z,83.40
2022-09-04T10:47:25.144Z,80.30
2022-09-04T10:50:13.366Z,80.30
2022-09-04T10:53:13.915Z,81.00
2022-09-04T10:55:49.780Z,81.30
2022-09-04T10:58:39.693Z,80.80
2022-09-04T11:01:55.896Z,81.30
2022-09-04T11:05:00.818Z,82.80
2022-09-04T11:07:36.781Z,83.40
2022-09-04T11:10:31.555Z,81.30
2022-09-04T11:13:10.522Z,81.50
2022-09-04T11:16:05.344Z,81.20
2022-09-04T11:18:46.950Z,81.40
2022-09-04T11:21:44.984Z,80.50
2022-09-04T11:24:31.697Z,80.10
2022-09-04T11:27:17.124Z,79.10
2022-09-04T11:29:59.588Z,78.80
2022-09-04T11:32:34.478Z,79.20
2022-09-04T11:35:03.826Z,78.20
2022-09-04T11:38:10.835Z,78.00
2022-09-04T11:40:59.547Z,76.80
2022-09-04T11:43:57.191Z,77.70
2022-09-04T11:47:01.703Z,78.10
2022-09-04T11:50:03.669Z,77.30
2022-09-04T11:53:11.353Z,76.50
2022-09-04T11:55:38.101Z,79.60
2022-09-04T11:58:33.946Z,80.70
2022-09-04T12:01:24.324Z,79.20
2022-09-04T12:04:32.160Z,80.30
2022-09-04T12:07:16.224Z,81.30
2022-09-04T12:10:14.891Z,81.50
2022-09-04T12:13:40.036Z,82.40
2022-09-04T12:16:44.761Z,82.20
2022-09-04T12:19:35.605Z,83.90
2022-09-04T12:22:31.892Z,84.80
2022-09-04T12:25:01.613Z,84.90
2022-09-04T12:27:53.152Z,85.30
2022-09-04T12:30:27.454Z,86.40
2022-09-04T12:33:30.303Z,85.50
2022-09-04T12:36:18.879Z,85.40
2022-09-04T12:39:15.174Z,83.90
2022-09-04T12:42:10.192Z,82.60
2022-09-04T12:45:13.379Z,81.80
2022-09-04T12:47:49.007Z,81.00
2022-09-04T12:50:36.173Z,80.90
2022-09-04T12:53:08.763Z,81.80
2022-09-04T12:55:41.991Z,80.70
2022-09-04T12:58:38.734Z,81.00
2022-09-04T13:01:44.614Z,78.50
2022-09-04T13:04:27.679Z,79.30
2022-09-04T13:07:02.134Z,80.30
2022-09-04T13:10:19.949Z,80.80
2022-09-04T13:13:19.215Z,80.90
2022-09-04T13:15:58.039Z,80.90
2022-09-04T13:18:35.486Z,78.90
2022-09-04T13:21:14.251Z,78.60
2022-09-04T13:24:13.596Z,79.10
2022-09-04T13:27:21.235Z,78.70
2022-09-04T13:30:09.889Z,80.10
2022-09-04T13:33:14.934Z,79.20
2022-09-04T13:35:50.116Z,78.70
2022-09-04T13:38:41.151Z,79.10
2022-09-04T13:41:30.494Z,78.80
2022-09-04T13:44:28.627Z,78.50
2022-09-04T13:47:32.362Z,78.20
2022-09-04T13:50:11.998Z,78.50
2022-09-04T13:52:46.772Z,78.10
2022-09-04T13:55:22.631Z,78.00
2022-09-04T13:58:20.162Z,79.00
2022-09-04T14:00:59.192Z,79.00
2022-09-04T14:03:37.992Z,79.40
2022-09-04T14:06:12.895Z,79.30
2022-09-04T14:08:39.869Z,79.30
2022-09-04T14:11:31.811Z,79.80
2022-09-04T14:14:27.704Z,79.50
2022-09-04T14:16:56.190Z,80.10
2022-09-04T14:19:31.104Z,80.00
2022-09-04T14:22:33.523Z,80.20
2022-09-04T14:25:15.996Z,78.60
2022-09-04T14:27:54.559Z,79.70
2022-09-04T14:30:23.422Z,79.40
2022-09-04T14:32:57.597Z,79.50
2022-09-04T14:35:59.116Z,79.60
2022-09-04T14:38:41.236Z,80.40
2022-09-04T14:41:14.281Z,79.90
2022-09-04T14:44:35.646Z,79.80
2022-09-04T14:47:31.289Z,79.90
2022-09-04T14:50:01.378Z,79.90
2022-09-04T14:52:36.595Z,81.10
2022-09-04T14:55:06.874Z,82.40
2022-09-04T14:57:41.640Z,83.10
2022-09-04T15:00:08.736Z,82.50
2022-09-04T15:02:42.613Z,82.30
2022-09-04T15:05:55.627Z,82.30
2022-09-04T15:08:38.105Z,82.40
2022-09-04T15:11:30.427Z,82.80
2022-09-04T15:14:06.776Z,82.80
2022-09-04T15:16:39.546Z,82.80
2022-09-04T15:19:25.063Z,82.90
2022-09-04T15:21:58.395Z,83.20
2022-09-04T15:24:38.708Z,82.90
2022-09-04T15:27:13.017Z,82.40
2022-09-04T15:29:51.730Z,83.10
2022-09-04T15:32:25.349Z,82.00
2022-09-04T15:35:15.314Z,81.90
2022-09-04T15:38:04.972Z,81.70
2022-09-04T15:40:59.613Z,81.60
2022-09-04T15:43:47.907Z,81.70
2022-09-04T15:46:43.377Z,81.70
2022-09-04T15:49:17.191Z,81.50
2022-09-04T15:52:03.234Z,81.80
2022-09-04T15:54:42.123Z,80.80
2022-09-04T15:57:17.346Z,80.80
2022-09-04T16:00:14.537Z,81.40
2022-09-04T16:02:59.175Z,81.60
2022-09-04T16:05:41.674Z,82.60
2022-09-04T16:08:35.483Z,82.50
2022-09-04T16:11:08.522Z,83.00
2022-09-04T16:13:56.942Z,83.80
2022-09-04T16:16:32.193Z,84.50
2022-09-04T16:19:29.727Z,84.40
2022-09-04T16:22:02.793Z,84.90
2022-09-04T16:24:44.441Z,84.90
2022-09-04T16:27:16.963Z,84.80
2022-09-04T16:29:59.959Z,85.30
2022-09-04T16:32:29.123Z,85.40
2022-09-04T16:35:09.102Z,85.40
2022-09-04T16:37:59.790Z,85.50
2022-09-04T16:40:37.920Z,85.50
2022-09-04T16:43:27.436Z,85.80
2022-09-04T16:46:07.631Z,86.10
2022-09-04T16:49:07.155Z,86.30
2022-09-04T16:51:48.433Z,86.60
2022-09-04T16:54:33.546Z,86.60
2022-09-04T16:57:27.861Z,86.80
2022-09-04T17:00:08.946Z,87.50
2022-09-04T17:02:55.192Z,87.70
2022-09-04T17:05:34.830Z,87.70
2022-09-04T17:08:38.645Z,88.20
2022-09-04T17:11:36.708Z,88.20
2022-09-04T17:14:17.484Z,88.10
2022-09-04T17:17:21.586Z,88.50
2022-09-04T17:20:07.048Z,88.50
2022-09-04T17:28:59.674Z,88.60
2022-09-04T17:29:11.931Z,89.00
2022-09-04T17:29:12.871Z,88.60
2022-09-04T17:32:11.841Z,89.20
2022-09-04T17:40:36.611Z,89.10
2022-09-04T17:40:39.449Z,89.20
2022-09-04T17:41:31.120Z,89.80
2022-09-04T17:44:46.704Z,89.90
2022-09-04T17:47:30.924Z,90.00
2022-09-04T17:49:58.979Z,90.10
2022-09-04T17:52:32.053Z,90.20
2022-09-04T17:55:04.116Z,90.30
2022-09-04T17:57:38.574Z,90.40
2022-09-04T18:00:20.190Z,90.40
2022-09-04T18:02:59.337Z,90.50
2022-09-04T18:05:33.624Z,90.60
2022-09-04T18:08:19.224Z,90.50
2022-09-04T18:11:17.923Z,90.50
2022-09-04T18:13:55.882Z,90.80
2022-09-04T18:16:53.327Z,91.00
2022-09-04T18:19:43.486Z,91.00
2022-09-04T18:22:38.195Z,91.20
2022-09-04T18:25:16.920Z,91.20
2022-09-04T18:28:11.342Z,91.20
2022-09-04T18:37:10.472Z,91.20
2022-09-04T18:37:26.721Z,91.40
2022-09-04T18:37:44.904Z,91.50
2022-09-04T18:41:56.839Z,91.60
2022-09-04T18:50:25.100Z,91.70
2022-09-04T18:50:28.383Z,91.80
2022-09-04T18:50:28.625Z,91.80
2022-09-04T18:52:03.179Z,91.90
2022-09-04T18:54:54.046Z,91.90
2022-09-04T18:57:32.985Z,92.00
2022-09-04T19:00:10.279Z,92.00
2022-09-04T19:03:00.926Z,92.10
2022-09-04T19:05:45.051Z,92.20
2022-09-04T19:08:19.768Z,92.10
2022-09-04T19:10:54.538Z,92.20
2022-09-04T19:13:29.810Z,92.40
2022-09-04T19:16:28.260Z,92.30
2022-09-04T19:19:09.603Z,92.80
2022-09-04T19:21:58.089Z,92.60
2022-09-04T19:24:41.038Z,92.70
2022-09-04T19:27:27.773Z,92.80
2022-09-04T19:29:54.990Z,92.90
2022-09-04T19:32:32.709Z,93.10
2022-09-04T19:34:59.340Z,92.90
2022-09-04T19:41:42.983Z,93.20
2022-09-04T19:45:54.335Z,93.00
2022-09-04T19:46:06.997Z,93.10
2022-09-04T19:46:44.965Z,93.30
2022-09-04T19:50:57.135Z,93.60
2022-09-04T19:53:30.003Z,93.60
2022-09-04T19:55:46.931Z,93.80
2022-09-04T19:58:22.651Z,93.90
2022-09-04T20:00:59.308Z,93.80
2022-09-04T20:03:35.433Z,93.90
2022-09-04T20:06:21.749Z,94.30
2022-09-04T20:09:02.398Z,94.00
2022-09-04T20:11:43.274Z,94.30
2022-09-04T20:14:19.072Z,94.70
2022-09-04T20:17:10.434Z,94.80
2022-09-04T20:19:52.654Z,94.80
2022-09-04T20:22:49.700Z,94.80
2022-09-04T20:25:39.851Z,94.90
2022-09-04T20:28:48.415Z,94.70
2022-09-04T20:31:36.614Z,94.90
2022-09-04T20:34:15.354Z,94.90
2022-09-04T20:36:49.438Z,94.90
2022-09-04T20:39:43.575Z,95.30
2022-09-04T20:42:22.706Z,95.00
2022-09-04T20:46:52.699Z,95.00
2022-09-04T20:52:42.253Z,95.10
2022-09-04T20:52:58.240Z,95.10
2022-09-04T20:54:01.916Z,95.00
2022-09-04T20:57:43.532Z,95.20
2022-09-04T21:03:12.536Z,95.10
2022-09-04T21:03:22.272Z,95.20
2022-09-04T21:06:07.411Z,95.20
2022-09-04T21:08:51.058Z,95.30
2022-09-04T21:11:39.779Z,95.30
2022-09-04T21:14:32.060Z,95.20
2022-09-04T21:17:44.500Z,95.20
2022-09-04T21:20:59.538Z,95.20
2022-09-04T21:24:02.898Z,95.30
2022-09-04T21:26:59.320Z,95.40
2022-09-04T21:30:00.153Z,95.60
2022-09-04T21:32:54.084Z,95.50
2022-09-04T21:35:41.336Z,95.40
2022-09-04T21:38:21.686Z,95.60
2022-09-04T21:41:03.436Z,95.60
2022-09-04T21:43:51.763Z,95.60
2022-09-04T21:47:08.428Z,95.60
2022-09-04T21:50:22.937Z,95.70
2022-09-04T21:53:25.906Z,95.70
2022-09-04T22:01:19.562Z,95.60
2022-09-04T22:02:36.872Z,95.60
2022-09-04T22:02:51.525Z,95.50
2022-09-04T22:05:46.692Z,95.60
2022-09-04T22:11:55.593Z,95.70
2022-09-04T22:13:43.095Z,95.60
2022-09-04T22:14:17.849Z,95.50
2022-09-04T22:16:44.516Z,95.60
2022-09-04T22:19:33.255Z,95.40
2022-09-04T22:22:54.235Z,95.50
2022-09-04T22:25:39.364Z,95.50
2022-09-04T22:28:41.210Z,95.40
2022-09-04T22:31:24.239Z,95.40
2022-09-04T22:34:37.792Z,95.50
2022-09-04T22:37:17.298Z,95.50
2022-09-04T22:39:49.809Z,95.60
2022-09-04T22:42:53.221Z,95.70
2022-09-04T22:45:42.424Z,96.10
2022-09-04T22:48:35.654Z,96.00
2022-09-04T22:51:39.661Z,96.20
2022-09-04T22:54:25.531Z,96.30
2022-09-04T22:57:02.443Z,96.80
2022-09-04T22:59:52.133Z,96.30
2022-09-04T23:05:36.440Z,96.70
2022-09-04T23:13:43.716Z,96.80
2022-09-04T23:13:52.626Z,96.90
2022-09-04T23:14:20.063Z,96.90
2022-09-04T23:17:03.062Z,96.80
2022-09-04T23:24:54.842Z,96.80
2022-09-04T23:26:44.995Z,97.10
2022-09-04T23:26:45.504Z,97.00
2022-09-04T23:29:44.601Z,97.00
2022-09-04T23:32:41.456Z,96.90
2022-09-04T23:35:14.636Z,97.10
2022-09-04T23:38:11.494Z,97.10
2022-09-04T23:40:52.247Z,97.40
2022-09-04T23:43:39.598Z,97.20
2022-09-04T23:46:38.823Z,97.30
2022-09-04T23:49:23.910Z,97.70
2022-09-04T23:52:04.860Z,97.30
2022-09-04T23:54:49.701Z,97.50
2022-09-04T23:57:26.022Z,97.60
